createdAt,value
2023-01-13T00:00:04.626Z,4.81
2023-01-13T00:02:32.626Z,4.82
2023-01-13T00:05:00.440Z,4.83
2023-01-13T00:07:28.216Z,4.83
2023-01-13T00:09:55.910Z,4.82
2023-01-13T00:12:23.661Z,4.79
2023-01-13T00:14:51.348Z,4.76
2023-01-13T00:17:19.077Z,4.76
2023-01-13T00:19:46.875Z,4.80
2023-01-13T00:22:14.577Z,4.82
2023-01-13T00:24:42.291Z,4.82
2023-01-13T00:27:10.020Z,4.82
2023-01-13T00:29:37.760Z,4.82
2023-01-13T00:32:05.487Z,4.81
2023-01-13T00:34:33.237Z,4.81
2023-01-13T00:37:00.993Z,4.81
2023-01-13T00:39:28.784Z,4.81
2023-01-13T00:42:15.253Z,4.80
2023-01-13T00:44:42.941Z,4.80
2023-01-13T00:47:10.647Z,4.86
2023-01-13T00:49:38.417Z,4.87
2023-01-13T00:52:06.200Z,4.86
2023-01-13T00:54:33.887Z,4.88
2023-01-13T00:57:01.593Z,4.89
2023-01-13T00:59:29.295Z,4.89
2023-01-13T01:01:57.098Z,4.89
2023-01-13T01:04:24.958Z,4.90
2023-01-13T01:06:52.624Z,4.88
2023-01-13T01:09:20.496Z,4.87
2023-01-13T01:11:48.182Z,4.87
2023-01-13T01:14:15.955Z,4.92
2023-01-13T01:16:43.743Z,4.94
2023-01-13T01:19:11.431Z,4.92
2023-01-13T01:21:39.212Z,4.93
2023-01-13T01:24:06.907Z,4.96
2023-01-13T01:26:34.656Z,4.97
2023-01-13T01:29:02.498Z,4.96
2023-01-13T01:31:31.628Z,4.97
2023-01-13T01:33:59.441Z,4.96
2023-01-13T01:36:27.174Z,4.94
2023-01-13T01:38:54.875Z,4.94
2023-01-13T01:41:22.611Z,4.99
2023-01-13T01:43:59.493Z,5.00
2023-01-13T01:46:27.403Z,4.99
2023-01-13T01:48:55.115Z,4.99
2023-01-13T01:51:22.801Z,5.00
2023-01-13T01:53:50.531Z,5.01
2023-01-13T01:56:18.245Z,5.02
2023-01-13T01:58:46.030Z,5.01
2023-01-13T02:01:13.895Z,5.01
2023-01-13T02:03:41.729Z,5.01
2023-01-13T02:06:09.429Z,5.06
2023-01-13T02:08:37.126Z,5.06
2023-01-13T02:11:04.808Z,5.04
2023-01-13T02:13:32.502Z,5.05
2023-01-13T02:16:00.249Z,5.04
2023-01-13T02:18:27.978Z,5.04
2023-01-13T02:20:55.661Z,5.06
2023-01-13T02:23:42.200Z,5.06
2023-01-13T02:26:09.892Z,5.05
2023-01-13T02:28:37.579Z,5.04
2023-01-13T02:31:24.140Z,5.06
2023-01-13T02:33:51.836Z,5.12
2023-01-13T02:36:19.569Z,5.13
2023-01-13T02:38:47.342Z,5.13
2023-01-13T02:41:34.032Z,5.14
2023-01-13T02:44:07.787Z,5.15
2023-01-13T02:46:35.532Z,5.14
2023-01-13T02:49:03.226Z,5.12
2023-01-13T02:51:30.933Z,5.12
2023-01-13T02:53:58.621Z,5.12
2023-01-13T02:56:26.356Z,5.13
2023-01-13T02:58:54.087Z,5.19
2023-01-13T03:01:21.941Z,5.22
2023-01-13T03:03:50.332Z,5.21
2023-01-13T03:06:17.954Z,5.22
2023-01-13T03:08:46.874Z,5.23
2023-01-13T03:11:14.482Z,5.23
2023-01-13T03:13:42.116Z,5.22
2023-01-13T03:16:09.812Z,5.21
2023-01-13T03:18:37.547Z,5.20
2023-01-13T03:21:05.162Z,5.18
2023-01-13T03:23:32.762Z,5.18
2023-01-13T03:26:00.399Z,5.23
2023-01-13T03:28:27.992Z,5.25
2023-01-13T03:30:55.714Z,5.24
2023-01-13T03:33:23.359Z,5.25
2023-01-13T03:35:51.013Z,5.27
2023-01-13T03:38:18.695Z,5.28
2023-01-13T03:40:46.308Z,5.27
2023-01-13T03:43:32.852Z,5.27
2023-01-13T03:46:00.526Z,5.26
2023-01-13T03:48:28.174Z,5.25
2023-01-13T03:50:56.473Z,5.25
2023-01-13T03:53:24.143Z,5.31
2023-01-13T03:55:51.749Z,5.32
2023-01-13T03:58:19.444Z,5.31
2023-01-13T04:00:47.108Z,5.33
2023-01-13T04:03:14.734Z,5.34
2023-01-13T04:05:42.337Z,5.35
2023-01-13T04:08:09.951Z,5.33
2023-01-13T04:10:37.578Z,5.31
2023-01-13T04:13:05.324Z,5.29
2023-01-13T04:15:33.072Z,5.26
2023-01-13T04:18:00.716Z,5.26
2023-01-13T04:20:28.334Z,5.29
2023-01-13T04:22:55.967Z,5.28
2023-01-13T04:25:23.587Z,5.29
2023-01-13T04:27:51.224Z,5.28
2023-01-13T04:30:18.875Z,5.28
2023-01-13T04:32:46.517Z,5.28
2023-01-13T04:35:14.127Z,5.27
2023-01-13T04:37:42.063Z,5.25
2023-01-13T04:40:09.677Z,5.23
2023-01-13T04:42:37.313Z,5.20
2023-01-13T04:45:04.972Z,5.20
2023-01-13T04:47:32.594Z,5.25
2023-01-13T04:50:00.235Z,5.26
2023-01-13T04:52:27.837Z,5.24
2023-01-13T04:54:56.349Z,5.25
2023-01-13T04:57:24.209Z,5.25
2023-01-13T04:59:51.818Z,5.24
2023-01-13T05:02:22.377Z,5.24
2023-01-13T05:04:50.243Z,5.22
2023-01-13T05:07:18.599Z,5.19
2023-01-13T05:09:46.213Z,5.18
2023-01-13T05:12:32.495Z,5.18
2023-01-13T05:15:18.840Z,5.23
2023-01-13T05:17:46.501Z,5.24
2023-01-13T05:20:14.164Z,5.23
2023-01-13T05:23:00.413Z,5.23
2023-01-13T05:25:28.445Z,5.24
2023-01-13T05:27:56.097Z,5.24
2023-01-13T05:30:23.723Z,5.23
2023-01-13T05:32:51.351Z,5.22
2023-01-13T05:35:19.017Z,5.21
2023-01-13T05:37:46.687Z,5.19
2023-01-13T05:40:33.165Z,5.19
2023-01-13T05:43:19.796Z,5.24
2023-01-13T05:45:47.429Z,5.24
2023-01-13T05:48:15.072Z,5.22
2023-01-13T05:50:42.896Z,5.22
2023-01-13T05:53:10.527Z,5.20
2023-01-13T05:55:38.141Z,5.19
2023-01-13T05:58:06.662Z,5.19
2023-01-13T06:00:34.272Z,5.18
2023-01-13T06:03:02.267Z,5.16
2023-01-13T06:05:29.928Z,5.16
2023-01-13T06:07:58.010Z,5.22
2023-01-13T06:10:25.711Z,5.23
2023-01-13T06:12:53.332Z,5.22
2023-01-13T06:15:20.961Z,5.22
2023-01-13T06:17:48.614Z,5.22
2023-01-13T06:20:16.244Z,5.22
2023-01-13T06:22:43.936Z,5.22
2023-01-13T06:25:11.757Z,5.20
2023-01-13T06:27:39.429Z,5.17
2023-01-13T06:30:07.035Z,5.16
2023-01-13T06:32:34.644Z,5.17
2023-01-13T06:35:04.719Z,5.21
2023-01-13T06:37:33.159Z,5.21
2023-01-13T06:40:00.798Z,5.19
2023-01-13T06:42:47.315Z,5.19
2023-01-13T06:45:14.933Z,5.18
2023-01-13T06:47:43.635Z,5.17
2023-01-13T06:50:11.272Z,5.16
2023-01-13T06:52:38.896Z,5.17
2023-01-13T06:55:06.570Z,5.18
2023-01-13T06:57:34.213Z,5.23
2023-01-13T07:00:01.844Z,5.23
2023-01-13T07:02:29.529Z,5.21
2023-01-13T07:04:57.238Z,5.21
2023-01-13T07:07:24.932Z,5.21
2023-01-13T07:09:52.808Z,5.21
2023-01-13T07:12:20.493Z,5.20
2023-01-13T07:15:07.047Z,5.20
2023-01-13T07:17:34.668Z,5.20
2023-01-13T07:20:02.324Z,5.20
2023-01-13T07:22:29.981Z,5.27
2023-01-13T07:24:58.232Z,5.31
2023-01-13T07:27:25.844Z,5.30
2023-01-13T07:29:53.569Z,5.32
2023-01-13T07:32:21.169Z,5.33
2023-01-13T07:34:48.881Z,5.36
2023-01-13T07:37:16.527Z,5.35
2023-01-13T07:39:45.542Z,5.36
2023-01-13T07:42:31.819Z,5.36
2023-01-13T07:44:59.445Z,5.34
2023-01-13T07:47:27.065Z,5.34
2023-01-13T07:49:54.680Z,5.39
2023-01-13T07:52:22.377Z,5.41
2023-01-13T07:54:50.428Z,5.40
2023-01-13T07:57:18.045Z,5.40
2023-01-13T07:59:45.641Z,5.41
2023-01-13T08:02:13.413Z,5.41
2023-01-13T08:04:41.486Z,5.40
2023-01-13T08:07:09.110Z,5.39
2023-01-13T08:09:36.717Z,5.40
2023-01-13T08:12:23.104Z,5.46
2023-01-13T08:14:51.903Z,5.48
2023-01-13T08:17:20.601Z,5.48
2023-01-13T08:19:48.561Z,5.50
2023-01-13T08:22:16.244Z,5.49
2023-01-13T08:24:43.853Z,5.51
2023-01-13T08:27:11.503Z,5.49
2023-01-13T08:29:39.259Z,5.48
2023-01-13T08:32:06.872Z,5.49
2023-01-13T08:34:34.488Z,5.51
2023-01-13T08:37:02.127Z,5.58
2023-01-13T08:39:29.775Z,5.59
2023-01-13T08:41:58.807Z,5.60
2023-01-13T08:44:26.579Z,5.61
2023-01-13T08:46:54.209Z,5.63
2023-01-13T08:49:21.892Z,5.64
2023-01-13T08:51:49.677Z,5.65
2023-01-13T08:54:17.313Z,5.65
2023-01-13T08:56:45.003Z,5.66
2023-01-13T08:59:12.733Z,5.67
2023-01-13T09:01:41.187Z,5.69
2023-01-13T09:04:08.900Z,5.77
2023-01-13T09:06:36.867Z,5.79
2023-01-13T09:09:04.565Z,5.80
2023-01-13T09:11:50.999Z,5.81
2023-01-13T09:14:18.931Z,5.83
2023-01-13T09:16:46.616Z,5.84
2023-01-13T09:19:14.299Z,5.83
2023-01-13T09:21:42.123Z,5.83
2023-01-13T09:24:09.737Z,5.84
2023-01-13T09:26:37.346Z,5.85
2023-01-13T09:29:04.940Z,5.91
2023-01-13T09:31:34.658Z,5.94
2023-01-13T09:34:20.787Z,5.93
2023-01-13T09:36:48.421Z,5.94
2023-01-13T09:39:16.071Z,5.94
2023-01-13T09:42:02.743Z,5.95
2023-01-13T09:44:30.435Z,5.95
2023-01-13T09:46:58.059Z,5.95
2023-01-13T09:49:25.660Z,5.94
2023-01-13T09:51:53.285Z,5.96
2023-01-13T09:54:20.977Z,6.05
2023-01-13T09:56:48.673Z,6.09
2023-01-13T09:59:16.429Z,6.09
2023-01-13T10:01:44.039Z,6.09
2023-01-13T10:04:11.694Z,6.12
2023-01-13T10:06:39.562Z,6.14
2023-01-13T10:09:07.194Z,6.15
2023-01-13T10:11:53.745Z,6.15
2023-01-13T10:14:21.374Z,6.16
2023-01-13T10:16:49.033Z,6.17
2023-01-13T10:19:16.736Z,6.25
2023-01-13T10:21:44.351Z,6.28
2023-01-13T10:24:12.089Z,6.28
2023-01-13T10:26:39.745Z,6.30
2023-01-13T10:29:07.392Z,6.32
2023-01-13T10:31:35.039Z,6.35
2023-01-13T10:34:04.139Z,6.37
2023-01-13T10:36:31.791Z,6.39
2023-01-13T10:38:59.425Z,6.40
2023-01-13T10:41:27.165Z,6.42
2023-01-13T10:43:54.787Z,6.44
2023-01-13T10:46:22.501Z,6.52
2023-01-13T10:48:50.300Z,6.56
2023-01-13T10:51:17.896Z,6.58
2023-01-13T10:53:45.573Z,6.60
2023-01-13T10:56:13.206Z,6.63
2023-01-13T10:58:40.848Z,6.67
2023-01-13T11:01:09.773Z,6.70
2023-01-13T11:03:37.784Z,6.72
2023-01-13T11:06:05.470Z,6.77
2023-01-13T11:08:33.090Z,6.83
2023-01-13T11:11:00.751Z,6.94
2023-01-13T11:13:28.364Z,7.01
2023-01-13T11:15:56.076Z,7.04
2023-01-13T11:18:23.966Z,7.10
2023-01-13T11:20:51.596Z,7.15
2023-01-13T11:23:22.051Z,7.18
2023-01-13T11:25:50.477Z,7.21
2023-01-13T11:28:18.146Z,7.25
2023-01-13T11:30:45.775Z,7.28
2023-01-13T11:33:13.371Z,7.28
2023-01-13T11:35:41.007Z,7.28
2023-01-13T11:38:09.021Z,7.33
2023-01-13T11:40:37.019Z,7.32
2023-01-13T11:43:04.623Z,7.30
2023-01-13T11:45:32.238Z,7.29
2023-01-13T11:47:59.842Z,7.27
2023-01-13T11:50:27.483Z,7.24
2023-01-13T11:52:55.091Z,7.23
2023-01-13T11:55:22.950Z,7.22
2023-01-13T11:57:50.655Z,7.21
2023-01-13T12:00:18.276Z,7.19
2023-01-13T12:02:46.019Z,7.18
2023-01-13T12:05:13.765Z,7.22
2023-01-13T12:07:41.379Z,7.22
2023-01-13T12:10:13.221Z,7.21
2023-01-13T12:12:41.371Z,7.23
2023-01-13T12:15:09.142Z,7.24
2023-01-13T12:17:36.781Z,7.26
2023-01-13T12:20:04.509Z,7.27
2023-01-13T12:22:32.128Z,7.28
2023-01-13T12:24:59.732Z,7.27
2023-01-13T12:27:27.362Z,7.27
2023-01-13T12:29:57.195Z,7.26
2023-01-13T12:32:24.853Z,7.24
2023-01-13T12:34:52.466Z,7.24
2023-01-13T12:37:20.084Z,7.30
2023-01-13T12:39:47.734Z,7.31
2023-01-13T12:42:34.359Z,7.30
2023-01-13T12:45:01.984Z,7.30
2023-01-13T12:47:29.652Z,7.30
2023-01-13T12:49:57.269Z,7.26
2023-01-13T12:52:25.211Z,7.24
2023-01-13T12:54:54.012Z,7.22
2023-01-13T12:57:21.644Z,7.20
2023-01-13T12:59:49.736Z,7.17
2023-01-13T13:02:18.098Z,7.15
2023-01-13T13:04:48.595Z,7.15
2023-01-13T13:07:16.225Z,7.19
2023-01-13T13:09:44.168Z,7.19
2023-01-13T13:12:11.818Z,7.16
2023-01-13T13:14:39.517Z,7.16
2023-01-13T13:17:07.202Z,7.15
2023-01-13T13:19:34.817Z,7.13
2023-01-13T13:22:02.411Z,7.11
2023-01-13T13:24:30.030Z,7.10
2023-01-13T13:26:57.897Z,7.09
2023-01-13T13:29:25.540Z,7.07
2023-01-13T13:31:53.154Z,7.05
2023-01-13T13:34:20.745Z,7.03
2023-01-13T13:36:48.377Z,7.03
2023-01-13T13:39:34.927Z,7.07
2023-01-13T13:42:21.350Z,7.08
2023-01-13T13:45:07.659Z,7.07
2023-01-13T13:47:35.268Z,7.06
2023-01-13T13:50:02.922Z,7.06
2023-01-13T13:52:30.639Z,7.04
2023-01-13T13:54:58.323Z,7.03
2023-01-13T13:57:25.938Z,7.01
2023-01-13T13:59:53.598Z,6.98
2023-01-13T14:02:21.282Z,6.96
2023-01-13T14:04:49.113Z,6.93
2023-01-13T14:07:18.498Z,6.97
2023-01-13T14:09:46.119Z,7.01
2023-01-13T14:12:14.438Z,6.99
2023-01-13T14:14:42.038Z,6.98
2023-01-13T14:17:09.690Z,6.98
2023-01-13T14:19:40.497Z,6.98
2023-01-13T14:22:08.130Z,6.97
2023-01-13T14:24:35.767Z,6.96
2023-01-13T14:27:03.490Z,6.93
2023-01-13T14:29:31.132Z,6.90
2023-01-13T14:31:58.732Z,6.87
2023-01-13T14:34:31.858Z,6.85
2023-01-13T14:37:00.785Z,6.89
2023-01-13T14:39:28.467Z,6.89
2023-01-13T14:41:56.989Z,6.87
2023-01-13T14:44:25.782Z,6.87
2023-01-13T14:46:55.400Z,6.86
2023-01-13T14:49:23.004Z,6.86
2023-01-13T14:51:50.635Z,6.85
2023-01-13T14:54:18.253Z,6.83
2023-01-13T14:56:47.395Z,6.82
2023-01-13T14:59:14.999Z,6.79
2023-01-13T15:01:42.746Z,6.79
2023-01-13T15:04:10.569Z,6.82
2023-01-13T15:06:38.244Z,6.81
2023-01-13T15:09:05.913Z,6.79
2023-01-13T15:11:33.545Z,6.76
2023-01-13T15:14:04.340Z,6.73
2023-01-13T15:16:34.567Z,6.71
2023-01-13T15:19:03.478Z,6.71
2023-01-13T15:21:31.106Z,6.69
2023-01-13T15:24:00.042Z,6.66
2023-01-13T15:26:27.728Z,6.64
2023-01-13T15:28:55.802Z,6.69
2023-01-13T15:31:23.580Z,6.71
2023-01-13T15:33:51.367Z,6.69
2023-01-13T15:36:18.984Z,6.65
2023-01-13T15:38:46.661Z,6.63
2023-01-13T15:41:14.294Z,6.63
2023-01-13T15:44:01.016Z,6.61
2023-01-13T15:46:38.085Z,6.60
2023-01-13T15:49:09.955Z,6.59
2023-01-13T15:51:41.481Z,6.56
2023-01-13T15:54:09.181Z,6.54
2023-01-13T15:56:36.853Z,6.59
2023-01-13T15:59:04.604Z,6.61
2023-01-13T16:01:32.352Z,6.58
2023-01-13T16:04:00.036Z,6.58
2023-01-13T16:06:28.042Z,6.58
2023-01-13T16:08:55.696Z,6.57
2023-01-13T16:11:23.311Z,6.56
2023-01-13T16:13:51.194Z,6.56
2023-01-13T16:16:19.017Z,6.54
2023-01-13T16:18:46.664Z,6.51
2023-01-13T16:21:14.757Z,6.49
2023-01-13T16:23:42.458Z,6.48
2023-01-13T16:26:10.085Z,6.53
2023-01-13T16:28:37.709Z,6.54
2023-01-13T16:31:05.323Z,6.53
2023-01-13T16:33:32.928Z,6.53
2023-01-13T16:36:11.790Z,6.54
2023-01-13T16:38:40.451Z,6.54
2023-01-13T16:41:08.494Z,6.52
2023-01-13T16:43:36.372Z,6.51
2023-01-13T16:46:04.275Z,6.50
2023-01-13T16:48:32.135Z,6.48
2023-01-13T16:50:59.808Z,6.47
2023-01-13T16:53:28.041Z,6.47
2023-01-13T16:55:55.655Z,6.54
2023-01-13T16:58:23.584Z,6.54
2023-01-13T17:00:53.151Z,6.52
2023-01-13T17:03:21.027Z,6.52
2023-01-13T17:05:48.741Z,6.51
2023-01-13T17:08:17.944Z,6.51
2023-01-13T17:10:45.959Z,6.51
2023-01-13T17:13:16.776Z,6.51
2023-01-13T17:15:44.803Z,6.49
2023-01-13T17:18:13.750Z,6.48
2023-01-13T17:20:41.493Z,6.47
2023-01-13T17:23:09.108Z,6.46
2023-01-13T17:25:36.699Z,6.46
2023-01-13T17:28:04.323Z,6.53
2023-01-13T17:30:31.935Z,6.54
2023-01-13T17:32:59.531Z,6.54
2023-01-13T17:35:27.725Z,6.54
2023-01-13T17:37:55.367Z,6.54
2023-01-13T17:40:23.086Z,6.53
2023-01-13T17:42:50.777Z,6.53
2023-01-13T17:45:18.443Z,6.52
2023-01-13T17:47:47.411Z,6.50
2023-01-13T17:50:15.220Z,6.49
2023-01-13T17:52:42.829Z,6.47
2023-01-13T17:55:10.424Z,6.45
2023-01-13T17:57:38.052Z,6.46
2023-01-13T18:00:05.687Z,6.52
2023-01-13T18:02:33.552Z,6.52
2023-01-13T18:05:01.222Z,6.52
2023-01-13T18:07:28.843Z,6.50
2023-01-13T18:09:56.448Z,6.50
2023-01-13T18:12:24.069Z,6.50
2023-01-13T18:14:51.713Z,6.50
2023-01-13T18:17:19.419Z,6.49
2023-01-13T18:20:06.023Z,6.48
2023-01-13T18:22:52.461Z,6.47
2023-01-13T18:25:38.743Z,6.45
2023-01-13T18:28:06.409Z,6.46
2023-01-13T18:30:34.086Z,6.51
2023-01-13T18:33:01.762Z,6.53
2023-01-13T18:35:30.277Z,6.52
2023-01-13T18:37:57.873Z,6.52
2023-01-13T18:40:25.703Z,6.52
2023-01-13T18:42:56.402Z,6.52
2023-01-13T18:45:24.501Z,6.51
2023-01-13T18:47:52.153Z,6.50
2023-01-13T18:50:19.777Z,6.49
2023-01-13T18:52:47.505Z,6.47
2023-01-13T18:55:15.120Z,6.47
2023-01-13T18:57:42.757Z,6.52
2023-01-13T19:00:10.426Z,6.53
2023-01-13T19:02:38.183Z,6.52
2023-01-13T19:05:05.876Z,6.51
2023-01-13T19:07:35.697Z,6.52
2023-01-13T19:10:04.476Z,6.52
2023-01-13T19:12:33.862Z,6.52
2023-01-13T19:15:01.563Z,6.51
2023-01-13T19:17:29.316Z,6.51
2023-01-13T19:19:58.512Z,6.49
2023-01-13T19:22:27.438Z,6.48
2023-01-13T19:24:55.040Z,6.49
2023-01-13T19:27:22.685Z,6.53
2023-01-13T19:29:51.994Z,6.55
2023-01-13T19:32:20.344Z,6.53
2023-01-13T19:34:49.515Z,6.53
2023-01-13T19:37:17.198Z,6.52
2023-01-13T19:39:44.879Z,6.53
2023-01-13T19:42:31.523Z,6.52
2023-01-13T19:45:18.142Z,6.50
2023-01-13T19:47:46.081Z,6.49
2023-01-13T19:50:13.819Z,6.48
2023-01-13T19:52:41.564Z,6.48
2023-01-13T19:55:09.943Z,6.54
2023-01-13T19:57:39.390Z,6.55
2023-01-13T20:00:07.090Z,6.54
2023-01-13T20:02:36.784Z,6.53
2023-01-13T20:05:06.718Z,6.55
2023-01-13T20:07:35.380Z,6.54
2023-01-13T20:10:03.086Z,6.54
2023-01-13T20:12:30.713Z,6.53
2023-01-13T20:14:58.326Z,6.52
2023-01-13T20:17:26.541Z,6.51
2023-01-13T20:19:54.636Z,6.48
2023-01-13T20:22:22.282Z,6.47
2023-01-13T20:24:55.091Z,6.54
2023-01-13T20:27:24.066Z,6.56
2023-01-13T20:29:51.857Z,6.55
2023-01-13T20:32:19.498Z,6.55
2023-01-13T20:34:47.122Z,6.54
2023-01-13T20:37:14.760Z,6.52
2023-01-13T20:39:46.581Z,6.51
2023-01-13T20:42:29.662Z,6.49
2023-01-13T20:44:57.477Z,6.46
2023-01-13T20:47:25.168Z,6.42
2023-01-13T20:49:52.800Z,6.43
2023-01-13T20:52:20.395Z,6.47
2023-01-13T20:54:47.989Z,6.47
2023-01-13T20:57:15.732Z,6.45
2023-01-13T20:59:43.356Z,6.42
2023-01-13T21:02:10.951Z,6.38
2023-01-13T21:04:38.553Z,6.34
2023-01-13T21:07:06.165Z,6.27
2023-01-13T21:09:33.918Z,6.22
2023-01-13T21:12:20.221Z,6.23
2023-01-13T21:15:06.680Z,6.24
2023-01-13T21:17:52.955Z,6.20
2023-01-13T21:20:20.803Z,6.14
2023-01-13T21:22:48.400Z,6.10
2023-01-13T21:25:16.741Z,6.07
2023-01-13T21:27:44.386Z,6.03
2023-01-13T21:30:15.641Z,6.01
2023-01-13T21:32:43.360Z,6.02
2023-01-13T21:35:11.045Z,5.98
2023-01-13T21:37:38.693Z,5.92
2023-01-13T21:40:06.341Z,5.88
2023-01-13T21:42:52.718Z,5.86
2023-01-13T21:45:39.444Z,5.88
2023-01-13T21:48:07.350Z,5.93
2023-01-13T21:50:34.951Z,5.92
2023-01-13T21:53:02.570Z,5.87
2023-01-13T21:55:30.577Z,5.85
2023-01-13T21:57:58.320Z,5.80
2023-01-13T22:00:25.988Z,5.77
2023-01-13T22:02:53.679Z,5.78
2023-01-13T22:05:21.641Z,5.82
2023-01-13T22:07:49.260Z,5.84
2023-01-13T22:10:16.872Z,5.83
2023-01-13T22:12:44.789Z,5.81
2023-01-13T22:15:13.314Z,5.80
2023-01-13T22:17:42.396Z,5.79
2023-01-13T22:20:10.445Z,5.77
2023-01-13T22:22:38.366Z,5.81
2023-01-13T22:25:07.203Z,5.83
2023-01-13T22:27:39.593Z,5.83
2023-01-13T22:30:07.487Z,5.84
2023-01-13T22:32:35.374Z,5.86
2023-01-13T22:35:03.256Z,5.86
2023-01-13T22:37:31.121Z,5.87
2023-01-13T22:39:59.010Z,5.94
2023-01-13T22:42:26.892Z,5.95
2023-01-13T22:44:54.753Z,5.95
2023-01-13T22:47:22.668Z,5.95
2023-01-13T22:49:50.586Z,5.91
2023-01-13T22:52:18.443Z,5.88
2023-01-13T22:54:46.351Z,5.91
2023-01-13T22:57:14.400Z,5.95
2023-01-13T22:59:42.514Z,5.98
2023-01-13T23:02:10.424Z,5.98
2023-01-13T23:04:38.353Z,5.98
2023-01-13T23:07:06.281Z,5.98
2023-01-13T23:09:34.254Z,5.98
2023-01-13T23:12:02.138Z,6.02
2023-01-13T23:14:30.019Z,6.01
2023-01-13T23:16:57.917Z,5.99
2023-01-13T23:19:25.911Z,5.97
2023-01-13T23:21:53.789Z,5.96
2023-01-13T23:24:26.042Z,5.96
2023-01-13T23:26:53.909Z,5.99
2023-01-13T23:29:21.806Z,6.01
2023-01-13T23:31:49.663Z,6.00
2023-01-13T23:34:17.545Z,5.97
2023-01-13T23:36:45.801Z,5.96
2023-01-13T23:39:13.736Z,5.95
2023-01-13T23:41:41.619Z,5.93
2023-01-13T23:44:09.494Z,5.98
2023-01-13T23:46:37.457Z,6.01
2023-01-13T23:49:05.386Z,6.02
2023-01-13T23:51:33.407Z,6.02
2023-01-13T23:54:01.724Z,6.04
2023-01-13T23:56:29.593Z,6.07
2023-01-13T23:58:57.532Z,6.15
